createdAt,value
2019-05-25T00:02:14.789Z,15.16
2019-05-25T00:07:20.116Z,15.06
2019-05-25T00:12:25.549Z,15.12
2019-05-25T00:17:30.898Z,15.07
2019-05-25T00:22:36.516Z,15.01
2019-05-25T00:27:41.830Z,14.92
2019-05-25T00:32:47.918Z,14.91
2019-05-25T00:37:53.258Z,14.80
2019-05-25T00:42:58.531Z,14.76
2019-05-25T00:48:04.080Z,14.66
2019-05-25T00:53:09.405Z,14.59
2019-05-25T00:58:14.707Z,14.62
2019-05-25T01:03:19.936Z,14.57
2019-05-25T01:08:25.978Z,14.53
2019-05-25T01:13:31.236Z,14.49
2019-05-25T01:18:36.477Z,14.37
2019-05-25T01:23:43.576Z,14.26
2019-05-25T01:28:48.838Z,14.24
2019-05-25T01:33:54.082Z,14.20
2019-05-25T01:38:59.624Z,14.14
2019-05-25T01:44:04.899Z,14.05
2019-05-25T01:49:10.328Z,13.97
2019-05-25T01:54:16.937Z,13.94
2019-05-25T01:59:22.285Z,13.85
2019-05-25T02:04:28.248Z,13.79
2019-05-25T02:09:33.573Z,13.71
2019-05-25T02:14:38.805Z,13.65
2019-05-25T02:19:44.135Z,13.62
2019-05-25T02:24:50.184Z,13.56
2019-05-25T02:29:55.601Z,13.51
2019-05-25T02:35:02.274Z,13.37
2019-05-25T02:40:09.437Z,13.29
2019-05-25T02:45:16.086Z,13.18
2019-05-25T02:50:22.289Z,13.01
2019-05-25T02:55:34.190Z,12.88
2019-05-25T03:00:35.366Z,12.86
2019-05-25T03:05:42.409Z,12.82
2019-05-25T03:10:49.844Z,12.75
2019-05-25T03:15:55.597Z,12.66
2019-05-25T03:21:01.502Z,12.56
2019-05-25T03:26:07.371Z,12.51
2019-05-25T03:31:12.648Z,12.59
2019-05-25T03:36:18.066Z,12.52
2019-05-25T03:41:24.680Z,12.55
2019-05-25T03:46:29.959Z,12.36
2019-05-25T03:51:35.627Z,12.30
2019-05-25T03:56:40.832Z,12.32
2019-05-25T04:01:46.394Z,12.32
2019-05-25T04:06:51.662Z,12.43
2019-05-25T04:11:57.020Z,12.30
2019-05-25T04:17:02.272Z,12.22
2019-05-25T04:22:07.534Z,12.23
2019-05-25T04:27:12.865Z,12.26
2019-05-25T04:32:18.223Z,12.26
2019-05-25T04:37:23.443Z,12.26
2019-05-25T04:42:28.678Z,12.27
2019-05-25T04:47:33.890Z,12.11
2019-05-25T04:52:41.412Z,12.12
2019-05-25T04:57:47.177Z,12.21
2019-05-25T05:02:52.471Z,12.25
2019-05-25T05:07:57.686Z,12.37
2019-05-25T05:13:03.188Z,12.36
2019-05-25T05:18:08.432Z,12.44
2019-05-25T05:23:14.057Z,12.49
2019-05-25T05:28:19.293Z,12.69
2019-05-25T05:33:24.597Z,12.64
2019-05-25T05:38:30.138Z,12.82
2019-05-25T05:43:38.306Z,13.15
2019-05-25T05:48:45.533Z,13.29
2019-05-25T05:53:55.784Z,13.58
2019-05-25T05:59:01.060Z,14.00
2019-05-25T06:04:06.654Z,14.47
2019-05-25T06:09:12.329Z,14.77
2019-05-25T06:14:17.505Z,15.21
2019-05-25T06:19:23.077Z,15.56
2019-05-25T06:24:28.291Z,15.98
2019-05-25T06:29:33.984Z,16.36
2019-05-25T06:34:39.492Z,16.80
2019-05-25T06:39:44.758Z,17.06
2019-05-25T06:44:50.360Z,17.32
2019-05-25T06:49:55.588Z,17.15
2019-05-25T06:55:00.793Z,17.30
2019-05-25T07:00:06.977Z,17.68
2019-05-25T07:05:13.453Z,17.40
2019-05-25T07:10:18.813Z,17.50
2019-05-25T07:15:24.027Z,17.90
2019-05-25T07:20:29.349Z,17.63
2019-05-25T07:25:34.615Z,17.91
2019-05-25T07:30:39.989Z,17.74
2019-05-25T07:35:45.276Z,18.21
2019-05-25T07:40:50.569Z,18.61
2019-05-25T07:45:55.976Z,18.76
2019-05-25T07:51:01.264Z,19.19
2019-05-25T07:56:06.514Z,19.09
2019-05-25T08:01:11.782Z,18.96
2019-05-25T08:06:16.998Z,19.29
2019-05-25T08:11:22.325Z,19.10
2019-05-25T08:16:28.397Z,18.98
2019-05-25T08:21:33.859Z,19.71
2019-05-25T08:26:39.090Z,18.92
2019-05-25T08:31:44.577Z,19.04
2019-05-25T08:36:50.113Z,18.89
2019-05-25T08:41:55.770Z,18.95
2019-05-25T08:47:01.308Z,18.84
2019-05-25T08:52:06.540Z,18.84
2019-05-25T08:57:16.164Z,19.40
2019-05-25T09:02:18.900Z,19.01
2019-05-25T09:07:24.670Z,18.88
2019-05-25T09:12:30.083Z,18.82
2019-05-25T09:17:35.427Z,18.97
2019-05-25T09:22:40.665Z,19.13
2019-05-25T09:27:45.943Z,19.47
2019-05-25T09:32:51.224Z,19.39
2019-05-25T09:37:56.544Z,19.55
2019-05-25T09:43:01.840Z,19.20
2019-05-25T09:48:07.507Z,19.13
2019-05-25T09:53:12.840Z,19.16
2019-05-25T09:58:18.143Z,19.53
2019-05-25T10:03:23.367Z,19.80
2019-05-25T10:08:28.873Z,20.10
2019-05-25T10:13:35.261Z,19.82
2019-05-25T10:18:40.583Z,20.25
2019-05-25T10:23:45.818Z,20.06
2019-05-25T10:28:51.537Z,20.48
2019-05-25T10:33:57.202Z,20.82
2019-05-25T10:39:02.504Z,20.34
2019-05-25T10:44:07.752Z,20.33
2019-05-25T10:49:13.405Z,20.27
2019-05-25T10:54:18.687Z,20.02
2019-05-25T10:59:24.308Z,20.69
2019-05-25T11:04:29.970Z,20.77
2019-05-25T11:09:35.292Z,21.39
2019-05-25T11:14:40.611Z,21.08
2019-05-25T11:19:45.996Z,21.00
2019-05-25T11:24:51.605Z,21.70
2019-05-25T11:30:08.577Z,21.47
2019-05-25T11:40:08.934Z,21.95
2019-05-25T11:45:14.370Z,22.31
2019-05-25T11:50:20.118Z,22.02
2019-05-25T11:55:25.513Z,22.47
2019-05-25T12:00:31.113Z,22.86
2019-05-25T12:05:36.384Z,22.96
2019-05-25T12:10:41.777Z,23.87
2019-05-25T12:15:47.000Z,25.08
2019-05-25T12:20:52.232Z,25.53
2019-05-25T12:25:57.552Z,25.77
2019-05-25T12:31:02.819Z,26.22
2019-05-25T12:36:09.399Z,25.64
2019-05-25T12:41:14.752Z,26.73
2019-05-25T12:46:19.988Z,27.60
2019-05-25T12:51:25.997Z,28.98
2019-05-25T12:56:31.541Z,28.93
2019-05-25T13:01:36.785Z,29.37
2019-05-25T13:06:42.322Z,31.07
2019-05-25T13:11:49.226Z,31.56
2019-05-25T13:16:54.839Z,31.32
2019-05-25T13:22:00.188Z,31.47
2019-05-25T13:27:05.441Z,31.93
2019-05-25T13:32:10.797Z,33.22
2019-05-25T13:37:17.901Z,33.05
2019-05-25T13:42:23.353Z,34.18
2019-05-25T13:47:28.968Z,34.40
2019-05-25T13:52:34.900Z,33.95
2019-05-25T13:57:40.272Z,33.51
2019-05-25T14:02:46.379Z,33.10
2019-05-25T14:07:51.681Z,32.69
2019-05-25T14:12:56.997Z,34.37
2019-05-25T14:18:03.150Z,34.14
2019-05-25T14:23:08.917Z,35.09
2019-05-25T14:28:14.173Z,34.93
2019-05-25T14:33:19.739Z,34.19
2019-05-25T14:38:25.333Z,34.83
2019-05-25T14:43:30.633Z,35.67
2019-05-25T14:48:36.000Z,35.67
2019-05-25T14:53:41.261Z,35.93
2019-05-25T14:58:46.698Z,35.86
2019-05-25T15:03:53.255Z,37.17
2019-05-25T15:08:58.511Z,34.34
2019-05-25T15:14:05.074Z,34.73
2019-05-25T15:19:10.435Z,34.01
2019-05-25T15:24:15.737Z,31.84
2019-05-25T15:29:21.017Z,27.61
2019-05-25T15:34:26.473Z,31.96
2019-05-25T15:39:31.822Z,28.40
2019-05-25T15:44:37.610Z,30.73
2019-05-25T15:49:43.183Z,32.08
2019-05-25T15:54:48.400Z,33.15
2019-05-25T15:59:53.764Z,33.25
2019-05-25T16:04:59.024Z,28.95
2019-05-25T16:10:04.843Z,26.83
2019-05-25T16:15:10.570Z,25.20
2019-05-25T16:20:19.145Z,24.25
2019-05-25T16:25:25.445Z,23.50
2019-05-25T16:30:31.674Z,22.55
2019-05-25T16:35:37.031Z,22.01
2019-05-25T16:40:42.961Z,22.09
2019-05-25T16:45:49.294Z,21.88
2019-05-25T16:50:54.588Z,21.53
2019-05-25T16:55:59.930Z,21.13
2019-05-25T17:01:05.227Z,21.03
2019-05-25T17:06:11.127Z,20.80
2019-05-25T17:11:16.804Z,20.68
2019-05-25T17:16:22.044Z,20.40
2019-05-25T17:21:27.392Z,20.43
2019-05-25T17:26:32.932Z,20.41
2019-05-25T17:31:38.661Z,20.41
2019-05-25T17:36:44.366Z,20.27
2019-05-25T17:41:49.729Z,20.10
2019-05-25T17:46:55.008Z,20.10
2019-05-25T17:52:00.265Z,20.12
2019-05-25T17:57:05.853Z,19.95
2019-05-25T18:02:11.135Z,19.84
2019-05-25T18:07:16.459Z,19.86
2019-05-25T18:12:22.057Z,19.90
2019-05-25T18:17:27.372Z,19.82
2019-05-25T18:22:32.602Z,19.76
2019-05-25T18:27:37.880Z,19.54
2019-05-25T18:32:43.566Z,19.33
2019-05-25T18:37:49.160Z,19.31
2019-05-25T18:42:54.676Z,19.19
2019-05-25T18:47:59.950Z,18.97
2019-05-25T18:53:05.453Z,18.93
2019-05-25T18:58:10.965Z,18.75
2019-05-25T19:03:16.249Z,18.61
2019-05-25T19:08:21.530Z,18.44
2019-05-25T19:13:26.760Z,18.39
2019-05-25T19:18:32.148Z,18.26
2019-05-25T19:23:37.407Z,18.06
2019-05-25T19:28:42.631Z,17.93
2019-05-25T19:33:47.867Z,17.73
2019-05-25T19:38:53.149Z,17.69
2019-05-25T19:43:58.648Z,17.55
2019-05-25T19:49:03.938Z,17.47
2019-05-25T19:54:09.213Z,17.37
2019-05-25T19:59:14.568Z,17.28
2019-05-25T20:04:19.947Z,17.15
2019-05-25T20:09:25.575Z,16.99
2019-05-25T20:14:30.842Z,16.92
2019-05-25T20:19:36.162Z,16.90
2019-05-25T20:24:41.448Z,16.86
2019-05-25T20:29:46.999Z,16.72
2019-05-25T20:34:52.258Z,16.60
2019-05-25T20:39:57.808Z,16.52
2019-05-25T20:45:03.073Z,16.46
2019-05-25T20:50:09.905Z,16.39
2019-05-25T20:55:15.144Z,16.35
2019-05-25T21:00:24.117Z,16.18
2019-05-25T21:05:27.852Z,15.98
2019-05-25T21:10:33.191Z,15.55
2019-05-25T21:15:38.523Z,15.33
2019-05-25T21:20:43.863Z,15.06
2019-05-25T21:25:49.085Z,14.97
2019-05-25T21:30:54.776Z,14.87
2019-05-25T21:36:08.198Z,14.61
2019-05-25T21:41:07.396Z,14.69
2019-05-25T21:46:12.727Z,14.52
2019-05-25T21:51:18.073Z,14.41
2019-05-25T21:56:23.327Z,14.29
2019-05-25T22:01:28.839Z,14.17
2019-05-25T22:06:34.213Z,14.03
2019-05-25T22:11:39.420Z,13.94
2019-05-25T22:16:45.147Z,13.73
2019-05-25T22:21:50.484Z,13.75
2019-05-25T22:26:56.214Z,13.44
2019-05-25T22:32:01.535Z,13.23
2019-05-25T22:37:06.794Z,13.16
2019-05-25T22:42:12.495Z,13.10
2019-05-25T22:47:18.725Z,12.84
2019-05-25T22:52:24.396Z,12.91
2019-05-25T22:57:29.863Z,12.92
2019-05-25T23:02:37.097Z,12.86
2019-05-25T23:07:42.399Z,12.69
2019-05-25T23:12:47.782Z,12.62
2019-05-25T23:17:53.497Z,12.41
2019-05-25T23:22:59.064Z,12.23
2019-05-25T23:28:04.375Z,12.16
2019-05-25T23:33:10.861Z,12.11
2019-05-25T23:38:16.391Z,12.18
2019-05-25T23:43:22.019Z,12.06
2019-05-25T23:48:27.495Z,11.94
2019-05-25T23:53:32.900Z,11.84
2019-05-25T23:58:38.192Z,11.72
